Somerset Stampede

back to results

Aug. 23, 2008

Somerset Stampede
Somerset Center, MI
Provided by Everal Race Management


Overall Female Overall Winners

Place Name City Bib No Age Overall Time Pace
1 Jordan Tomecek Milan MI 282 16 7 19:14.3 6:12/M

Overall Male Overall Winners

Place Name City Bib No Age Overall Time Pace
1 Sam Skeels Adrian MI 229 30 1 17:14.0 5:34/M

Overall Female Masters Winners

Place Name City Bib No Age Overall Time Pace
1 Carrie Schupbach Jackson MI 253 48 25 24:10.6 7:48/M

Overall Male Masters Winners

Place Name City Bib No Age Overall Time Pace
1 Philip Van Dyke Jackson MI 55 43 4 18:30.2 5:58/M

Female 14 and under

Place Name City Bib No Age Overall Time Pace
1 Heather Beaver Newport MI 208 9 22 23:48.6 7:41/M
2 Danielle Anderson Milan MI 46 12 23 23:50.3 7:41/M
3 Shannon Richardson Jerome Michi 245 12 28 24:26.1 7:53/M
4 Megan Hoop Jackson MI 291 13 30 24:32.3 7:55/M
5 Hannah Peterson Jackson MI 243 12 38 25:21.9 8:11/M
6 Emily Haynes Jackson MI 247 14 40 25:37.7 8:16/M
7 Emma Hofer Brooklyn MI 246 14 42 25:44.3 8:18/M
8 Haley Dack Leslie MI 182 9 48 26:19.3 8:29/M
9 Brandy Deem Jonesville MI 57 13 62 27:53.7 9:00/M
10 Shayla Neelis Concord MI 391 12 66 28:20.7 9:08/M
11 Ashley Nelson Buchanan MI 95 14 80 31:06.8 10:02/M
12 Michelle Boorman Somerset MI 16 0 100 34:10.7 11:01/M
13 Jennifer Pratt Eaton Rapids MI 17 13 118 39:40.5 12:48/M
14 Sarah Hall Dimondale MI 85 13 119 39:40.8 12:48/M
15 Sara Wright Commerce Twp MI 37 11 128 50:38.9 16:20/M
16 Julia Mazerov Liberty Twp. MI 29 9 130 51:58.4 16:46/M
17 MacKenna Anderson 268 8 131 59:03.2 19:03/M

Male 14 & Under

Place Name City Bib No Age Overall Time Pace
1 Nathan Anderson Milan MI 44 14 10 21:04.8 6:48/M
2 Adam Milley Saline MI 14 13 29 24:30.9 7:54/M
3 Isaac Pringle Hanover MI 223 13 34 24:50.2 8:01/M
4 Matthew Dubensky Cement City MI 59 14 35 24:56.1 8:03/M
5 Alex Hoop 292 11 46 26:11.6 8:27/M
6 Jacob Melton Jackson MI 58 14 57 27:22.7 8:50/M
7 Andrew Nelson Buchanan MI 96 12 68 29:02.4 9:22/M
8 Jacob Wiltse Horton MI 250 12 107 35:56.5 11:35/M
9 Nicholas Burt Cement City MI 168 12 116 38:44.7 12:30/M

Female 15 to 17

Place Name City Bib No Age Overall Time Pace
1 Katie French Parma MI 249 17 27 24:18.2 7:50/M
2 Emily Smith Somerset Ctr MI 200 17 37 25:10.9 8:07/M

Male 15 to 17

Place Name City Bib No Age Overall Time Pace
1 Kyle Anderson Milan MI 43 17 3 17:46.3 5:44/M
2 Jacob Simmons Adrian MI 218 15 6 19:02.9 6:08/M
3 Jesse Dalton North Adams MI 177 17 81 31:07.9 10:02/M
4 Kaleb Neelis Concord MI 389 17 111 37:00.6 11:56/M

Female 18 to 24

Place Name City Bib No Age Overall Time Pace
1 Carrie Furnival Jackson MI 50 22 52 26:49.7 8:39/M
2 Angela Sommers Marshall MI 98 23 60 27:45.0 8:57/M
3 Nataliia Popruha Leslie MI 155 18 76 30:32.0 9:51/M
4 Nandrae Palmiter 404 23 98 33:57.3 10:57/M
5 Annette Padley Brooklyn MI 281 24 104 35:31.5 11:27/M
6 Marley Munn Bellevue MI 240 18 123 44:56.9 14:30/M

Male 18 to 24

Place Name City Bib No Age Overall Time Pace
1 Daniel Perdew Jackson MI 225 19 9 20:27.5 6:36/M
2 Kyle Schaedler Waldron MI 159 19 12 21:47.2 7:02/M
3 Kobey Neelis Concord MI 388 18 15 22:42.4 7:19/M
4 Robert Stuart Milan MI 160 20 61 27:50.4 8:59/M
5 Dominic Salenbien Adrian MI 398 24 102 34:14.1 11:03/M

Female 25 to 29

Place Name City Bib No Age Overall Time Pace
1 Melissa Farrell Clinton MH 174 28 89 32:57.8 10:38/M
2 Julie Simpson Royal Oak MI 112 28 92 33:25.3 10:47/M
3 Lora Finch Battle Creek MI 97 28 94 33:39.8 10:51/M
4 Jenifer Royalty Horton MI 145 27 96 33:55.9 10:56/M
5 Natalie Liss Jackson MI 61 29 99 33:59.1 10:58/M
6 Emily Roberts Hillard OH 279 26 114 38:11.6 12:19/M

Male 25 to 29

Place Name City Bib No Age Overall Time Pace
1 Ryan Bills Adrian MI 228 29 2 17:32.9 5:39/M
2 Anthony Farrell Clinton MI 173 29 17 23:25.8 7:33/M
3 Justin Shuberg Jackson MI 395 25 44 26:06.5 8:25/M
4 Arturo Navarro-Martiu Birmingham MI 403 29 71 29:11.8 9:25/M

Female 30 to 34

Place Name City Bib No Age Overall Time Pace
1 Stacy Nieto Portage MI 206 30 24 24:08.4 7:47/M
2 Andrea Conway Grass Lake MI 13 33 56 27:21.8 8:49/M
3 Melissa Salenbien Tecumseh MI 258 31 74 30:25.0 9:49/M
4 Anne Kittendorf Dexter MI 213 33 83 31:17.1 10:05/M

Male 30 to 34

Place Name City Bib No Age Overall Time Pace
1 Jeff Kittendorf Dexter MI 214 34 21 23:48.3 7:41/M
2 Chris Christensen Hudson MI 53 34 43 25:54.3 8:21/M
3 Kurt Spratt Hillsdale MI 148 30 47 26:12.5 8:27/M
4 Matt Lowrance Jerome MI 1 31 54 27:06.6 8:45/M
5 Joe Liss Jackson MI 60 30 91 33:08.1 10:41/M
6 Kevin Knowles Mason MI 171 30 97 33:56.2 10:57/M

Female 35 to 39

Place Name City Bib No Age Overall Time Pace
1 Denise Wright Tecumseh MI 150 38 65 28:14.2 9:06/M
2 Hope Bailey Marshall MI 221 37 75 30:26.0 9:49/M
3 Laura Milley-Pear Saline MI 15 39 103 35:07.7 11:20/M
4 Amy McCrate Tecumseh MI 290 39 105 35:45.6 11:32/M
5 Lisa Hayes Clark Lake MI 287 37 112 37:21.8 12:03/M
6 Loreen Dwyer Tecumseh MI 259 37 125 47:31.9 15:20/M
7 Tracey Anderson 267 38 132 59:04.3 19:03/M

Male 35 to 39

Place Name City Bib No Age Overall Time Pace
1 Tom Durbin Adrian MI 220 36 8 19:44.6 6:22/M
2 Clint Genthner Jackson MI 170 36 11 21:11.6 6:50/M
3 Danny Neelis Concord MI 390 39 20 23:47.1 7:40/M
4 Kerry Dack Leslie MI 181 35 77 30:43.0 9:55/M
5 Rich Langley Jackson MI 397 37 79 31:06.1 10:02/M
6 Jeff Matzen Jackson MI 394 39 122 42:26.8 13:41/M
7 Todd Grubbs Adrian MI 216 38 133 2:06:23.2 40:46/M

Female 40 to 44

Place Name City Bib No Age Overall Time Pace
1 Debbie Forshee Dexter MI 153 43 26 24:14.0 7:49/M
2 Deborah Davis Leslie MI 156 44 58 27:26.1 8:51/M
3 Becky Dalton North Adams MI 175 42 64 28:11.2 9:05/M
4 Carla Perry Union City MI 158 40 67 28:42.0 9:15/M
5 Jena Adams Marlboro MA 41 43 70 29:05.4 9:23/M
6 Deanna Stacker Britton MI 284 41 72 29:14.2 9:26/M
7 Sandy Langley Jackson MI 396 41 78 31:05.5 10:02/M
8 Shiela Fowler Jackson MI 34 42 84 31:47.8 10:15/M
9 Ramona Booher Jackson MI 3 43 90 33:02.1 10:39/M
10 Pam Tomecek Milan MI 283 41 106 35:54.2 11:35/M
11 Christina Burt Cement City MI 167 42 117 38:45.2 12:30/M
12 Stacey Schweda Jackson MI 68 40 126 49:56.3 16:06/M
13 Stacey Conklin 288 42 129 51:58.2 16:46/M

Male 40 to 44

Place Name City Bib No Age Overall Time Pace
1 Tom Manzagol Dexter MI 278 42 13 22:05.1 7:07/M
2 Dean Martin Jackson MI 231 40 14 22:14.6 7:10/M
3 Jim King Jackson MI 212 43 18 23:28.4 7:34/M
4 Rick Barber Adrian MI 227 42 32 24:44.6 7:59/M
5 Doug Adams Marlboro MA 42 41 39 25:27.5 8:13/M
6 Duane Meads Jackson Michi 280 42 45 26:08.6 8:26/M
7 Greg Barley Hillsdale MI 256 40 53 27:00.5 8:43/M
8 Mark Stoner Adrian MI 163 41 88 32:57.1 10:38/M

Female 45 to 49

Place Name City Bib No Age Overall Time Pace
1 Carol Carncy Jackson MI 401 47 33 24:48.5 8:00/M
2 Jill Cripe Cement City MI 2 46 101 34:10.8 11:01/M

Male 45 to 49

Place Name City Bib No Age Overall Time Pace
1 Dale Hool Jackson MI 210 48 5 18:44.0 6:03/M
2 Jeffrey Flannery Leslie MI 203 48 50 26:22.2 8:30/M
3 Bob Yopko Chelsea MI 48 48 51 26:39.4 8:36/M
4 Domingo Valadez Temperance MI 63 49 59 27:37.8 8:55/M
5 Tom Stegeman 385 46 87 32:32.1 10:30/M
6 Rick Zenz Jackson michi 209 47 93 33:38.5 10:51/M

Female 50 to 54

Place Name City Bib No Age Overall Time Pace
1 Linda Stegeman Cement City MI 386 50 73 29:42.4 9:35/M
2 Merry Young Clinton MI 237 53 86 31:58.2 10:19/M
3 Pat Bing Westlake OH 116 51 110 36:54.9 11:54/M
4 Barbara Grant-Yopko Chelsea MI 47 54 124 46:26.6 14:59/M

Male 50 to 54

Place Name City Bib No Age Overall Time Pace
1 Bob Anderson Brooklyn MI 263 50 19 23:42.2 7:39/M
2 Gary Hanafee Detroit MI 241 53 41 25:43.0 8:18/M
3 Timothy Kohlitz Jackson MI 74 53 49 26:21.2 8:30/M
4 Randy Eicher Pleasant Lake MI 269 51 63 28:06.7 9:04/M
5 Rick Zantop Jackson MI 248 52 85 31:56.4 10:18/M
6 John Brooks Jerome MI 108 51 127 50:32.9 16:18/M

Male 55 to 59

Place Name City Bib No Age Overall Time Pace
1 Randy Fielder Adrian MI 20 57 31 24:41.8 7:58/M
2 John Lane Jackson MI 7 59 69 29:05.3 9:23/M
3 Thomas Ramundo Jackson MI 67 59 95 33:44.7 10:53/M
4 Tom Cubberly Michigan Center MI 54 59 108 36:41.0 11:50/M
5 Curtis Chatters Jackson MI 222 58 109 36:41.7 11:50/M

Female 60 to 66

Place Name City Bib No Age Overall Time Pace
1 Barbara Spahr Torrance CA 205 64 113 38:09.8 12:18/M

Male 60 to 66

Place Name City Bib No Age Overall Time Pace
1 Grant St. John West Lorne ONTARIO 31 62 16 22:56.1 7:24/M
2 Steven Fazekas Jonesville MI 180 62 36 25:09.0 8:07/M
3 Anthony Oleynik Albion MI 35 60 115 38:37.1 12:27/M
4 Barry Taylor Michigan Center MI 188 62 120 39:51.7 12:51/M

Male 67 & Up

Place Name City Bib No Age Overall Time Pace
1 David Schupbach Jackson MI 405 68 55 27:10.4 8:46/M
2 Ronald Gill Pleasant Lake MI 194 71 82 31:14.4 10:05/M

No Age Given

Place Name City Bib No Age Overall Time Pace
1 Ryuse Matzen Jackson MI 393 99 121 42:26.6 13:41/M




Overall Female Overall Winners

Place Name City Bib No Age Overall Time Pace
1 Julie Manzagol Dexter MI 215 42 3 34:29.3 11:07/M

Overall Male Overall Winners

Place Name City Bib No Age Overall Time Pace
1 Tom Tripp Jackson MI 238 57 1 33:11.2 10:42/M

Overall Female Masters Winners

Place Name City Bib No Age Overall Time Pace
1 Lori Stoner Adrian MI 162 40 5 41:38.2 13:26/M

Overall Male Masters Winners

Place Name City Bib No Age Overall Time Pace
1 Kris Kloack Rives Junciton MI 179 59 2 33:31.8 10:49/M

Female 14 and under

Place Name City Bib No Age Overall Time Pace
1 Marissa Markouich Duck Lake MI 73 12 9 47:33.0 15:20/M
2 Kacey Conklin Jackson MI 289 14 18 50:39.3 16:20/M
3 Graci Dack Leslie MI 184 7 21 55:21.8 17:51/M

Male 14 & under

Place Name City Bib No Age Overall Time Pace
1 Nick Grantham Jackson MI 262 13 12 49:57.9 16:07/M

Female 15 to 17

Place Name City Bib No Age Overall Time Pace
1 Shelby Dalton North Adams MI 176 16 20 54:06.8 17:27/M

Female 30 to 34

Place Name City Bib No Age Overall Time Pace
1 Tammy Neelis Concord MI 387 34 4 37:16.6 12:01/M
2 Kim Sayles Somerset Ctr MI 261 32 11 49:57.1 16:07/M
3 Jenifer Dack Leslie MI 183 31 23 55:25.6 17:53/M

Female 35 to 39

Place Name City Bib No Age Overall Time Pace
1 Lisa Runles Dundee MI 161 36 10 48:30.0 15:39/M
2 Pam Peterson Jackson MI 260 37 19 50:59.0 16:27/M

Female 40 to 44

Place Name City Bib No Age Overall Time Pace
1 Nancy Pringle Hanover MI 224 43 7 44:45.6 14:26/M
2 Lori Hoop Jackson MI 293 40 16 50:01.0 16:08/M

Female 45 to 49

Place Name City Bib No Age Overall Time Pace
1 Denise Kay Flannery Leslie MI 204 47 22 55:25.4 17:53/M

Female 50 to 54

Place Name City Bib No Age Overall Time Pace
1 Karen Hartman Jerome MI 80 53 13 49:58.6 16:07/M

Male 50 to 54

Place Name City Bib No Age Overall Time Pace
1 Mike Wright Commerce Twp MI 36 54 17 50:33.0 16:18/M

Female 60 to 66

Place Name City Bib No Age Overall Time Pace
1 Shirrell Fishcer Dexter MI 12 60 14 49:59.4 16:07/M

Female 67 & up

Place Name City Bib No Age Overall Time Pace
1 Carol Maynard Marshall MI 71 67 15 50:00.2 16:08/M

Male 67 & up

Place Name City Bib No Age Overall Time Pace
1 Clifford Mazerov Jerome MI 30 74 6 44:20.3 14:18/M
2 Larry Maynard Marshall MI 72 69 8 45:26.3 14:39/M




Overall Female Overall Winners

Place Name City Bib No Age Overall Time Pace
1 Shannon Kohlitz Jackson MI 219 20 16 1:41:17.3 7:44/M

Overall Male Overall Winners

Place Name City Bib No Age Overall Time Pace
1 Michael Ofsansky Hillsdale MI 233 29 1 1:19:30.4 6:04/M

Overall Female Masters Winners

Place Name City Bib No Age Overall Time Pace
1 Wanda Gunderson Whitmore Lake MI 11 49 17 1:42:14.5 7:48/M

Overall Male Masters Winners

Place Name City Bib No Age Overall Time Pace
1 Todd Kelly Troy MI 196 47 3 1:25:44.8 6:33/M

Female 14 and under

Place Name City Bib No Age Overall Time Pace
1 Megan Hubbard Hanover MI 166 14 26 1:47:28.6 8:12/M

Male 14 & Under

Place Name City Bib No Age Overall Time Pace
1 Tim Roesscez Champaign IL 51 0 54 1:59:13.2 9:06/M
2 Devin Chalifour Dearborn Heights M 142 8 105 2:30:22.0 11:29/M

Female 15 to 17

Place Name City Bib No Age Overall Time Pace
1 Melissa Hall Dimondale MI 39 17 97 2:23:50.0 10:59/M
2 Valerie Collins Spring Arbor MI 244 17 123 3:02:26.1 13:56/M

Male 15 to 17

Place Name City Bib No Age Overall Time Pace
1 Adam Pendl South Bend IN 128 16 95 2:20:49.9 10:45/M

Female 18 to 24

Place Name City Bib No Age Overall Time Pace
1 Heidi Keller Delta OH 90 23 19 1:44:21.7 7:58/M
2 Rebecca Reichel Novi MI 135 21 58 2:01:16.7 9:15/M
3 Kelly Sanders Maumee OH 117 22 61 2:02:17.3 9:20/M
4 Jade Huffman Wixom MI 105 23 63 2:02:36.8 9:22/M
5 Kristi Hershiser 235 22 66 2:03:57.8 9:28/M
6 Amy Killingbeck Rives Junction MI 8 23 67 2:04:12.4 9:29/M
7 Natasha Krol Ann Arbor MI 111 23 75 2:08:29.7 9:48/M
8 Erica Rutter Ann Arbor MI 187 21 80 2:10:09.0 9:56/M
9 Stephanie Bork Allen Park MI 138 19 100 2:26:29.0 11:11/M
10 Laura Clauser South Bend IN 127 20 102 2:27:51.0 11:17/M
11 Nicole Hall Dimondale MI 38 21 108 2:33:14.4 11:42/M
12 Jessica Roberts Hilliard OH 130 22 112 2:44:50.5 12:35/M
13 Nicole Bing Ypsilanti MI 113 24 115 2:53:47.4 13:16/M

Male 18 to 24

Place Name City Bib No Age Overall Time Pace
1 Pete Betanzos Tecumseh MI 75 21 10 1:35:54.9 7:19/M
2 Aaron Smith Grass Lake MI 21 24 38 1:51:52.2 8:32/M
3 Andrew Apling Hudson MI 104 23 64 2:02:37.0 9:22/M

Female 25 to 29

Place Name City Bib No Age Overall Time Pace
1 Sarah Spratt Hillsdale MI 147 29 18 1:42:22.0 7:49/M
2 Kara King Jerome MI 266 29 53 1:59:12.2 9:06/M
3 Julie Champagne Jerome MI 172 28 71 2:06:13.3 9:38/M
4 Nicole Hein Jackson MI 79 25 88 2:14:17.6 10:15/M
5 Amanda Naugle Ypsilanti MI 255 28 90 2:17:17.5 10:29/M
6 Carmen Hillstead Southfield MI 106 26 107 2:30:49.0 11:31/M
7 Kristen Nester Dexter MI 232 28 119 2:58:22.9 13:37/M
8 Julie Tison Clarklake MI 151 26 120 3:00:11.9 13:45/M
9 Jennifer Spencer Jackson MI 152 29 121 3:01:05.0 13:49/M

Male 25 to 29

Place Name City Bib No Age Overall Time Pace
1 Andrew Brackmann Dearborn MI 69 25 2 1:20:29.8 6:09/M
2 Ray Ng Canton MI 254 28 20 1:45:08.3 8:02/M
3 Patrick Laflamme Jackson michi 251 29 29 1:49:01.0 8:19/M
4 Rob Nieto Portage MI 402 28 34 1:50:27.8 8:26/M
5 Tomasz Respondek Ferndale MI 207 25 56 1:59:33.7 9:08/M

Female 30 to 34

Place Name City Bib No Age Overall Time Pace
1 Jennifer Ward Clinton Twp MI 154 32 42 1:54:41.3 8:45/M
2 Abigail O'Haver Dexter MI 178 34 81 2:10:11.3 9:56/M
3 Elizabeth Gillespie Jackson MI 5 30 101 2:27:20.0 11:15/M
4 Julia Brown Tipton MI 27 32 111 2:42:58.7 12:26/M
5 Carrie Harris North Adams MI 78 31 117 2:54:18.0 13:18/M

Male 30 to 34

Place Name City Bib No Age Overall Time Pace
1 Stephane Laurent Detroit MI 185 30 6 1:28:46.6 6:47/M
2 Michael Harry Clinton Township M 146 33 7 1:29:44.9 6:51/M
3 James Furkis Ligonier IN 257 31 8 1:30:34.1 6:55/M
4 Jeremy Spencer Marshall MI 133 31 30 1:49:11.4 8:20/M
5 Jeff Dalton Westland MI 121 31 35 1:50:31.8 8:26/M
6 Michael Gillespie Jackson MI 4 30 36 1:51:12.5 8:29/M
7 Paul Salah Belleville MI 56 31 50 1:58:43.0 9:04/M
8 Paul Snabes Jackson michi 242 33 86 2:13:45.9 10:13/M

Female 35 to 39

Place Name City Bib No Age Overall Time Pace
1 Marcy Sacks Albion MI 149 38 21 1:45:10.3 8:02/M
2 Karen Eekhoff Dexter MI 49 37 40 1:52:59.8 8:37/M
3 Denise Dashner Temperance MI 62 38 70 2:05:39.9 9:35/M
4 Amy McAlary Jackson MI 9 39 84 2:11:39.7 10:03/M

Male 35 to 39

Place Name City Bib No Age Overall Time Pace
1 Michael Dempsey Adrian MI 285 39 22 1:45:18.6 8:02/M
2 Doug Van Meter Homer Michi 384 39 23 1:45:50.3 8:05/M
3 Steve Trefry Jackson MI 169 35 25 1:46:36.8 8:08/M
4 Eric Tucker Temperance MI 125 39 27 1:47:39.2 8:13/M
5 Michael Peth Dexter MI 198 39 28 1:48:49.8 8:18/M
6 John Coakley Hillsdale MI 118 36 32 1:49:28.1 8:21/M
7 James Reid Plymouth MI 226 38 39 1:52:34.8 8:36/M
8 Troy Baker Plymouth MI 103 37 51 1:59:05.4 9:05/M
9 Bill Bartlett Jackson MI 186 37 73 2:06:47.1 9:41/M
10 Daniel Schultz Brooklyn MI 252 39 78 2:10:00.9 9:55/M
11 Erik Frazier Fowlerville MI 101 38 85 2:12:08.0 10:05/M

Female 40 to 44

Place Name City Bib No Age Overall Time Pace
1 Katherine Gillman Whitmore Lake MI 197 41 24 1:46:11.2 8:06/M
2 Anne Erven Jerome MI 89 42 44 1:56:11.4 8:52/M
3 Melissa Nelson Buchanan MI 94 41 49 1:57:10.7 8:57/M
4 Paige Crowley Jackson MI 66 40 96 2:22:03.1 10:51/M
5 Tamara Webster Lawton MI 115 40 99 2:25:24.0 11:06/M

Male 40 to 44

Place Name City Bib No Age Overall Time Pace
1 David Nelson Buchanan MI 93 42 9 1:33:40.5 7:09/M
2 Brian Harreld Dexter MI 392 40 13 1:38:56.7 7:33/M
3 Jose Zul Jackson Michi 399 41 31 1:49:23.6 8:21/M
4 David Ambs Cement City MI 286 40 37 1:51:46.8 8:32/M
5 John Sheldon 236 41 41 1:54:16.7 8:43/M
6 David Vanhoof Horton MI 234 43 43 1:55:56.3 8:51/M
7 Tony Farr Dearborn Heights M 122 44 46 1:56:52.0 8:55/M
8 Timothy Culp Taylor MI 134 43 59 2:01:23.8 9:16/M
9 Bob Shammas Dexter MI 164 41 69 2:05:06.5 9:33/M
10 Ricardo Olalla-Guerra West Bloomfield MI 141 40 82 2:10:18.8 9:57/M
11 David Carabott Canton MI 32 44 109 2:34:30.1 11:48/M

Female 45 to 49

Place Name City Bib No Age Overall Time Pace
1 Cindy Embry Clinton MI 70 48 33 1:49:56.6 8:24/M
2 Sheri Bush Brooklyn MI 6 48 47 1:56:54.7 8:55/M
3 Patti Shammas Dexter MI 165 48 65 2:03:04.0 9:24/M
4 Mary Murphy Marshall MI 99 49 77 2:09:54.1 9:55/M

Male 45 to 49

Place Name City Bib No Age Overall Time Pace
1 Virginio Martinez Jackson MI 211 47 5 1:27:51.2 6:42/M
2 Thomas Kleman Temperance MI 26 47 11 1:36:16.2 7:21/M
3 Doyle Rice Jackson MI 91 48 14 1:40:01.8 7:38/M
4 Jeffrey Vandis Battle Creek MI 157 46 48 1:56:59.3 8:56/M
5 Russ Dempsey Adrian MI 217 46 68 2:04:33.2 9:30/M
6 Jeff Anderson Lansing MI 45 46 72 2:06:16.5 9:38/M
7 Sean Munn Allen MI 239 45 79 2:10:02.8 9:56/M

Female 50 to 54

Place Name City Bib No Age Overall Time Pace
1 Jo Essenmacher Osseo MI 294 52 62 2:02:34.6 9:21/M
2 Martha McHugh Jackson MI 230 52 93 2:20:04.9 10:42/M
3 Sharon Rodriguez Adrian MI 19 50 94 2:20:22.1 10:43/M
4 Sheila Waldrop Berrien Center MI 143 50 106 2:30:39.0 11:30/M

Male 50 to 54

Place Name City Bib No Age Overall Time Pace
1 Robert Price Quincy MI 199 53 4 1:26:01.4 6:34/M
2 Marvin Guitar Harrison Twp. MI 195 51 15 1:40:48.0 7:42/M
3 Tim Beeman Berrien Springs MI 132 54 55 1:59:16.5 9:06/M
4 Richard Karcher Perrysburg OH 192 53 60 2:02:11.1 9:20/M
5 Daniel Myers Ann Arbor MI 33 51 76 2:09:11.9 9:52/M
6 Richard Quimby Battle Creek MI 100 50 87 2:14:05.8 10:14/M
7 Joe Lerczak Jackson MI 10 51 89 2:14:55.0 10:18/M
8 Mark Newton Shaker Hts OH 264 50 98 2:24:25.0 11:01/M
9 William Bork Allen Park MI 139 53 103 2:28:10.0 11:19/M
10 Steven Roberts Hilliard OH 129 50 113 2:44:50.7 12:35/M
11 Jeff Bing Westlake OH 114 54 116 2:53:48.3 13:16/M
12 Dana Budd Churusbusco IN 77 54 122 3:02:12.2 13:55/M

Male 55 to 59

Place Name City Bib No Age Overall Time Pace
1 Vernie Criswell Delphi IN 76 56 12 1:38:15.4 7:30/M
2 Aurelio D'Arcangellis Kalamazoo MI 137 56 45 1:56:24.4 8:53/M
3 Mike King Cement City MI 265 58 52 1:59:06.8 9:05/M
4 Dave Tucker Westland MI 123 59 74 2:07:41.5 9:45/M
5 Nelson Wietholter Allen Park MI 136 56 92 2:18:16.6 10:33/M

Female 60 to 66

Place Name City Bib No Age Overall Time Pace
1 Mary Steinhauser La Salle MI 190 63 104 2:29:58.0 11:27/M
2 Barbie Scrogham Ft. Wayne IN 28 61 110 2:42:02.4 12:22/M

Male 60 to 66

Place Name City Bib No Age Overall Time Pace
1 Paul Warmbier Plymouth MI 131 61 57 2:00:14.3 9:11/M
2 Daniel Kavetsky Westland MI 140 64 83 2:11:18.7 10:01/M
3 Steve Hyder Adrian MI 81 66 91 2:17:30.9 10:30/M
4 Cyril Steinhauser Lasalle MI 189 66 114 2:46:33.4 12:43/M
5 Wally Drogt Jackson MI 87 60 118 2:54:44.8 13:20/M

Somerset Center, MI
Provided by Everal Race Management